sensor_id;sensor_type;location;lat;lon;timestamp;temperature;humidity
15364;DHT22;7781;49.690;6.472;2023-04-01T00:00:29;9.60;99.90
15364;DHT22;7781;49.690;6.472;2023-04-01T00:02:57;9.60;99.90
15364;DHT22;7781;49.690;6.472;2023-04-01T00:05:27;9.60;99.90
15364;DHT22;7781;49.690;6.472;2023-04-01T00:07:59;9.60;99.90
15364;DHT22;7781;49.690;6.472;2023-04-01T00:10:28;9.50;99.90
15364;DHT22;7781;49.690;6.472;2023-04-01T00:12:56;9.50;99.90
15364;DHT22;7781;49.690;6.472;2023-04-01T00:15:26;9.50;99.90
15364;DHT22;7781;49.690;6.472;2023-04-01T00:17:56;9.40;99.90
15364;DHT22;7781;49.690;6.472;2023-04-01T00:20:28;9.40;99.90
15364;DHT22;7781;49.690;6.472;2023-04-01T00:22:57;9.30;99.90
15364;DHT22;7781;49.690;6.472;2023-04-01T00:25:26;9.40;99.90
15364;DHT22;7781;49.690;6.472;2023-04-01T00:27:54;9.40;99.90
15364;DHT22;7781;49.690;6.472;2023-04-01T00:30:23;9.40;99.90
15364;DHT22;7781;49.690;6.472;2023-04-01T00:32:52;9.40;99.90
15364;DHT22;7781;49.690;6.472;2023-04-01T00:35:23;9.30;99.90
15364;DHT22;7781;49.690;6.472;2023-04-01T00:37:53;9.40;99.90
15364;DHT22;7781;49.690;6.472;2023-04-01T00:40:26;9.40;99.90
15364;DHT22;7781;49.690;6.472;2023-04-01T00:42:57;9.40;99.90
15364;DHT22;7781;49.690;6.472;2023-04-01T00:45:31;9.40;99.90
15364;DHT22;7781;49.690;6.472;2023-04-01T00:48:04;9.40;99.90
15364;DHT22;7781;49.690;6.472;2023-04-01T00:50:36;9.40;99.90
15364;DHT22;7781;49.690;6.472;2023-04-01T00:53:08;9.50;99.90
15364;DHT22;7781;49.690;6.472;2023-04-01T00:55:45;9.50;99.90
15364;DHT22;7781;49.690;6.472;2023-04-01T00:58:18;9.50;99.90
15364;DHT22;7781;49.690;6.472;2023-04-01T01:00:52;9.50;99.90
15364;DHT22;7781;49.690;6.472;2023-04-01T01:03:23;9.50;99.90
15364;DHT22;7781;49.690;6.472;2023-04-01T01:06:10;9.50;99.90
15364;DHT22;7781;49.690;6.472;2023-04-01T01:09:03;9.50;99.90
15364;DHT22;7781;49.690;6.472;2023-04-01T01:11:40;9.60;99.90
15364;DHT22;7781;49.690;6.472;2023-04-01T01:14:24;9.50;99.90
15364;DHT22;7781;49.690;6.472;2023-04-01T01:16:57;9.50;99.90
15364;DHT22;7781;49.690;6.472;2023-04-01T01:19:50;9.50;99.90
15364;DHT22;7781;49.690;6.472;2023-04-01T01:25:29;9.60;99.90
15364;DHT22;7781;49.690;6.472;2023-04-01T01:28:17;9.60;99.90
15364;DHT22;7781;49.690;6.472;2023-04-01T01:30:57;9.60;99.90
15364;DHT22;7781;49.690;6.472;2023-04-01T01:33:38;9.60;99.90
15364;DHT22;7781;49.690;6.472;2023-04-01T01:36:14;9.60;99.90
15364;DHT22;7781;49.690;6.472;2023-04-01T01:38:44;9.60;99.90
15364;DHT22;7781;49.690;6.472;2023-04-01T01:41:16;9.60;99.90
15364;DHT22;7781;49.690;6.472;2023-04-01T01:43:48;9.60;99.90
15364;DHT22;7781;49.690;6.472;2023-04-01T01:46:21;9.60;99.90
15364;DHT22;7781;49.690;6.472;2023-04-01T01:48:52;9.60;99.90
15364;DHT22;7781;49.690;6.472;2023-04-01T01:51:27;9.60;99.90
15364;DHT22;7781;49.690;6.472;2023-04-01T01:53:56;9.60;99.90
15364;DHT22;7781;49.690;6.472;2023-04-01T01:56:27;9.50;99.90
15364;DHT22;7781;49.690;6.472;2023-04-01T01:59:00;9.40;99.90
15364;DHT22;7781;49.690;6.472;2023-04-01T02:01:33;9.30;99.90
15364;DHT22;7781;49.690;6.472;2023-04-01T02:04:13;9.30;99.90
15364;DHT22;7781;49.690;6.472;2023-04-01T02:06:49;9.20;99.90
15364;DHT22;7781;49.690;6.472;2023-04-01T02:09:20;9.20;99.90
15364;DHT22;7781;49.690;6.472;2023-04-01T02:11:51;9.20;99.90
15364;DHT22;7781;49.690;6.472;2023-04-01T02:14:22;9.10;99.90
15364;DHT22;7781;49.690;6.472;2023-04-01T02:16:57;9.10;99.90
15364;DHT22;7781;49.690;6.472;2023-04-01T02:19:33;9.10;99.90
15364;DHT22;7781;49.690;6.472;2023-04-01T02:22:08;9.00;99.90
15364;DHT22;7781;49.690;6.472;2023-04-01T02:24:41;9.00;99.90
15364;DHT22;7781;49.690;6.472;2023-04-01T02:27:12;9.00;99.90
15364;DHT22;7781;49.690;6.472;2023-04-01T02:29:43;8.90;99.90
15364;DHT22;7781;49.690;6.472;2023-04-01T02:32:16;8.90;99.90
15364;DHT22;7781;49.690;6.472;2023-04-01T02:34:46;8.90;99.90
15364;DHT22;7781;49.690;6.472;2023-04-01T02:37:20;8.90;99.90
15364;DHT22;7781;49.690;6.472;2023-04-01T02:39:48;8.90;99.90
15364;DHT22;7781;49.690;6.472;2023-04-01T02:42:17;8.90;99.90
15364;DHT22;7781;49.690;6.472;2023-04-01T02:44:45;8.80;99.90
15364;DHT22;7781;49.690;6.472;2023-04-01T02:47:16;8.80;99.90
15364;DHT22;7781;49.690;6.472;2023-04-01T02:49:45;8.80;99.90
15364;DHT22;7781;49.690;6.472;2023-04-01T02:52:13;8.80;99.90
15364;DHT22;7781;49.690;6.472;2023-04-01T02:54:44;8.80;99.90
15364;DHT22;7781;49.690;6.472;2023-04-01T02:57:12;8.80;99.90
15364;DHT22;7781;49.690;6.472;2023-04-01T02:59:42;8.80;99.90
15364;DHT22;7781;49.690;6.472;2023-04-01T03:02:10;8.80;99.90
15364;DHT22;7781;49.690;6.472;2023-04-01T03:04:40;8.80;99.90
15364;DHT22;7781;49.690;6.472;2023-04-01T03:07:10;8.90;99.90
15364;DHT22;7781;49.690;6.472;2023-04-01T03:09:39;8.80;99.90
15364;DHT22;7781;49.690;6.472;2023-04-01T03:12:10;8.80;99.90
15364;DHT22;7781;49.690;6.472;2023-04-01T03:14:50;8.80;99.90
15364;DHT22;7781;49.690;6.472;2023-04-01T03:17:19;8.80;99.90
15364;DHT22;7781;49.690;6.472;2023-04-01T03:19:50;8.80;99.90
15364;DHT22;7781;49.690;6.472;2023-04-01T03:22:20;8.80;99.90
15364;DHT22;7781;49.690;6.472;2023-04-01T03:24:52;8.80;99.90
15364;DHT22;7781;49.690;6.472;2023-04-01T03:27:22;8.80;99.90
15364;DHT22;7781;49.690;6.472;2023-04-01T03:29:50;8.80;99.90
15364;DHT22;7781;49.690;6.472;2023-04-01T03:32:19;8.80;99.90
15364;DHT22;7781;49.690;6.472;2023-04-01T03:34:48;8.70;99.90
15364;DHT22;7781;49.690;6.472;2023-04-01T03:37:17;8.70;99.90
15364;DHT22;7781;49.690;6.472;2023-04-01T03:39:50;8.70;99.90
15364;DHT22;7781;49.690;6.472;2023-04-01T03:42:19;8.70;99.90
15364;DHT22;7781;49.690;6.472;2023-04-01T03:44:50;8.70;99.90
15364;DHT22;7781;49.690;6.472;2023-04-01T03:47:21;8.70;99.90
15364;DHT22;7781;49.690;6.472;2023-04-01T03:49:50;8.60;99.90
15364;DHT22;7781;49.690;6.472;2023-04-01T03:52:21;8.70;99.90
15364;DHT22;7781;49.690;6.472;2023-04-01T03:54:53;8.60;99.90
15364;DHT22;7781;49.690;6.472;2023-04-01T03:57:22;8.60;99.90
15364;DHT22;7781;49.690;6.472;2023-04-01T03:59:54;8.70;99.90
15364;DHT22;7781;49.690;6.472;2023-04-01T04:02:23;8.60;99.90
15364;DHT22;7781;49.690;6.472;2023-04-01T04:04:52;8.70;99.90
15364;DHT22;7781;49.690;6.472;2023-04-01T04:07:22;8.60;99.90
15364;DHT22;7781;49.690;6.472;2023-04-01T04:10:00;8.70;99.90
15364;DHT22;7781;49.690;6.472;2023-04-01T04:12:29;8.70;99.90
15364;DHT22;7781;49.690;6.472;2023-04-01T04:14:59;8.60;99.90
15364;DHT22;7781;49.690;6.472;2023-04-01T04:17:27;8.60;99.90
15364;DHT22;7781;49.690;6.472;2023-04-01T04:19:59;8.60;99.90
15364;DHT22;7781;49.690;6.472;2023-04-01T04:22:28;8.60;99.90
15364;DHT22;7781;49.690;6.472;2023-04-01T04:24:56;8.60;99.90
15364;DHT22;7781;49.690;6.472;2023-04-01T04:27:25;8.50;99.90
15364;DHT22;7781;49.690;6.472;2023-04-01T04:30:06;8.50;99.90
15364;DHT22;7781;49.690;6.472;2023-04-01T04:32:39;8.50;99.90
15364;DHT22;7781;49.690;6.472;2023-04-01T04:35:11;8.50;99.90
15364;DHT22;7781;49.690;6.472;2023-04-01T04:37:40;8.50;99.90
15364;DHT22;7781;49.690;6.472;2023-04-01T04:40:08;8.40;99.90
15364;DHT22;7781;49.690;6.472;2023-04-01T04:42:41;8.40;99.90
15364;DHT22;7781;49.690;6.472;2023-04-01T04:45:14;8.40;99.90
15364;DHT22;7781;49.690;6.472;2023-04-01T04:47:52;8.40;99.90
15364;DHT22;7781;49.690;6.472;2023-04-01T04:50:21;8.40;99.90
15364;DHT22;7781;49.690;6.472;2023-04-01T04:52:54;8.40;99.90
15364;DHT22;7781;49.690;6.472;2023-04-01T04:55:23;8.40;99.90
15364;DHT22;7781;49.690;6.472;2023-04-01T04:58:14;8.40;99.90
15364;DHT22;7781;49.690;6.472;2023-04-01T05:00:47;8.40;99.90
15364;DHT22;7781;49.690;6.472;2023-04-01T05:03:25;8.50;99.90
15364;DHT22;7781;49.690;6.472;2023-04-01T05:05:54;8.40;99.90
15364;DHT22;7781;49.690;6.472;2023-04-01T05:08:23;8.50;99.90
15364;DHT22;7781;49.690;6.472;2023-04-01T05:10:52;8.50;99.90
15364;DHT22;7781;49.690;6.472;2023-04-01T05:13:20;8.50;99.90
15364;DHT22;7781;49.690;6.472;2023-04-01T05:15:51;8.50;99.90
15364;DHT22;7781;49.690;6.472;2023-04-01T05:18:23;8.50;99.90
15364;DHT22;7781;49.690;6.472;2023-04-01T05:20:53;8.50;99.90
15364;DHT22;7781;49.690;6.472;2023-04-01T05:23:23;8.50;99.90
15364;DHT22;7781;49.690;6.472;2023-04-01T05:25:52;8.50;99.90
15364;DHT22;7781;49.690;6.472;2023-04-01T05:28:21;8.50;99.90
15364;DHT22;7781;49.690;6.472;2023-04-01T05:30:51;8.50;99.90
15364;DHT22;7781;49.690;6.472;2023-04-01T05:33:22;8.50;99.90
15364;DHT22;7781;49.690;6.472;2023-04-01T05:35:51;8.50;99.90
15364;DHT22;7781;49.690;6.472;2023-04-01T05:38:21;8.50;99.90
15364;DHT22;7781;49.690;6.472;2023-04-01T05:40:49;8.50;99.90
15364;DHT22;7781;49.690;6.472;2023-04-01T05:43:18;8.50;99.90
15364;DHT22;7781;49.690;6.472;2023-04-01T05:45:53;8.50;99.90
15364;DHT22;7781;49.690;6.472;2023-04-01T05:48:47;8.50;99.90
15364;DHT22;7781;49.690;6.472;2023-04-01T05:51:16;8.60;99.90
15364;DHT22;7781;49.690;6.472;2023-04-01T05:53:47;8.60;99.90
15364;DHT22;7781;49.690;6.472;2023-04-01T05:56:16;8.60;99.90
15364;DHT22;7781;49.690;6.472;2023-04-01T05:58:53;8.60;99.90
15364;DHT22;7781;49.690;6.472;2023-04-01T06:01:25;8.60;99.90
15364;DHT22;7781;49.690;6.472;2023-04-01T06:03:54;8.60;99.90
15364;DHT22;7781;49.690;6.472;2023-04-01T06:06:26;8.60;99.90
15364;DHT22;7781;49.690;6.472;2023-04-01T06:09:12;8.60;99.90
15364;DHT22;7781;49.690;6.472;2023-04-01T06:15:02;8.60;99.90
15364;DHT22;7781;49.690;6.472;2023-04-01T06:17:43;8.60;99.90
15364;DHT22;7781;49.690;6.472;2023-04-01T06:20:24;8.60;99.90
15364;DHT22;7781;49.690;6.472;2023-04-01T06:23:19;8.70;99.90
15364;DHT22;7781;49.690;6.472;2023-04-01T06:25:55;8.70;99.90
15364;DHT22;7781;49.690;6.472;2023-04-01T06:28:49;8.70;99.90
15364;DHT22;7781;49.690;6.472;2023-04-01T06:31:38;8.70;99.90
15364;DHT22;7781;49.690;6.472;2023-04-01T06:37:42;8.70;99.90
15364;DHT22;7781;49.690;6.472;2023-04-01T06:40:28;8.70;99.90
15364;DHT22;7781;49.690;6.472;2023-04-01T06:43:10;8.80;99.90
15364;DHT22;7781;49.690;6.472;2023-04-01T06:46:07;8.90;99.90
15364;DHT22;7781;49.690;6.472;2023-04-01T06:49:17;8.90;99.90
15364;DHT22;7781;49.690;6.472;2023-04-01T06:52:17;8.90;99.90
15364;DHT22;7781;49.690;6.472;2023-04-01T06:55:37;8.90;99.90
15364;DHT22;7781;49.690;6.472;2023-04-01T06:58:37;8.90;99.90
15364;DHT22;7781;49.690;6.472;2023-04-01T07:01:12;9.00;99.90
15364;DHT22;7781;49.690;6.472;2023-04-01T07:03:47;9.00;99.90
15364;DHT22;7781;49.690;6.472;2023-04-01T07:06:24;9.00;99.90
15364;DHT22;7781;49.690;6.472;2023-04-01T07:08:59;9.00;99.90
15364;DHT22;7781;49.690;6.472;2023-04-01T07:11:56;9.00;99.90
15364;DHT22;7781;49.690;6.472;2023-04-01T07:14:53;9.10;99.90
15364;DHT22;7781;49.690;6.472;2023-04-01T07:17:27;9.10;99.90
15364;DHT22;7781;49.690;6.472;2023-04-01T07:19:59;9.20;99.90
15364;DHT22;7781;49.690;6.472;2023-04-01T07:22:33;9.20;99.90
15364;DHT22;7781;49.690;6.472;2023-04-01T07:25:13;9.20;99.90
15364;DHT22;7781;49.690;6.472;2023-04-01T07:27:52;9.20;99.90
15364;DHT22;7781;49.690;6.472;2023-04-01T07:30:22;9.30;99.90
15364;DHT22;7781;49.690;6.472;2023-04-01T07:32:58;9.30;99.90
15364;DHT22;7781;49.690;6.472;2023-04-01T07:35:32;9.30;99.90
15364;DHT22;7781;49.690;6.472;2023-04-01T07:38:14;9.30;99.90
15364;DHT22;7781;49.690;6.472;2023-04-01T07:40:49;9.40;99.90
15364;DHT22;7781;49.690;6.472;2023-04-01T07:43:40;9.40;99.90
15364;DHT22;7781;49.690;6.472;2023-04-01T07:46:50;9.40;99.90
15364;DHT22;7781;49.690;6.472;2023-04-01T07:49:29;9.40;99.90
15364;DHT22;7781;49.690;6.472;2023-04-01T07:52:01;9.40;99.90
15364;DHT22;7781;49.690;6.472;2023-04-01T07:54:42;9.40;99.90
15364;DHT22;7781;49.690;6.472;2023-04-01T07:57:19;9.40;99.90
15364;DHT22;7781;49.690;6.472;2023-04-01T07:59:59;9.40;99.90
15364;DHT22;7781;49.690;6.472;2023-04-01T08:02:53;9.40;99.90
15364;DHT22;7781;49.690;6.472;2023-04-01T08:05:28;9.40;99.90
15364;DHT22;7781;49.690;6.472;2023-04-01T08:08:08;9.40;99.90
15364;DHT22;7781;49.690;6.472;2023-04-01T08:11:23;9.40;99.90
15364;DHT22;7781;49.690;6.472;2023-04-01T08:14:19;9.40;99.90
15364;DHT22;7781;49.690;6.472;2023-04-01T08:17:36;9.50;99.90
15364;DHT22;7781;49.690;6.472;2023-04-01T08:20:18;9.50;99.90
15364;DHT22;7781;49.690;6.472;2023-04-01T08:22:51;9.60;99.90
15364;DHT22;7781;49.690;6.472;2023-04-01T08:25:32;9.60;99.90
15364;DHT22;7781;49.690;6.472;2023-04-01T08:28:10;9.70;99.90
15364;DHT22;7781;49.690;6.472;2023-04-01T08:30:47;9.80;99.90
15364;DHT22;7781;49.690;6.472;2023-04-01T08:33:23;9.80;99.90
15364;DHT22;7781;49.690;6.472;2023-04-01T08:36:05;9.80;99.90
15364;DHT22;7781;49.690;6.472;2023-04-01T08:38:40;9.90;99.90
15364;DHT22;7781;49.690;6.472;2023-04-01T08:44:55;10.00;99.90
15364;DHT22;7781;49.690;6.472;2023-04-01T08:48:08;10.00;99.90
15364;DHT22;7781;49.690;6.472;2023-04-01T08:51:17;10.00;99.90
15364;DHT22;7781;49.690;6.472;2023-04-01T08:54:23;10.00;99.90
15364;DHT22;7781;49.690;6.472;2023-04-01T08:57:06;9.90;99.90
15364;DHT22;7781;49.690;6.472;2023-04-01T08:59:59;9.80;99.90
15364;DHT22;7781;49.690;6.472;2023-04-01T09:03:35;9.90;99.90
15364;DHT22;7781;49.690;6.472;2023-04-01T09:06:26;10.00;99.90
15364;DHT22;7781;49.690;6.472;2023-04-01T09:15:45;10.00;99.90
15364;DHT22;7781;49.690;6.472;2023-04-01T09:18:50;10.00;99.90
15364;DHT22;7781;49.690;6.472;2023-04-01T09:28:05;10.30;99.90
15364;DHT22;7781;49.690;6.472;2023-04-01T09:31:19;10.30;99.90
15364;DHT22;7781;49.690;6.472;2023-04-01T09:34:30;10.30;99.90
15364;DHT22;7781;49.690;6.472;2023-04-01T09:37:19;10.30;99.90
15364;DHT22;7781;49.690;6.472;2023-04-01T09:40:17;10.40;99.90
15364;DHT22;7781;49.690;6.472;2023-04-01T09:46:11;10.40;99.90
15364;DHT22;7781;49.690;6.472;2023-04-01T09:52:10;10.40;99.90
15364;DHT22;7781;49.690;6.472;2023-04-01T09:54:58;10.50;99.90
15364;DHT22;7781;49.690;6.472;2023-04-01T09:57:52;10.60;99.90
15364;DHT22;7781;49.690;6.472;2023-04-01T10:01:14;10.60;99.90
15364;DHT22;7781;49.690;6.472;2023-04-01T10:10:42;10.40;99.90
15364;DHT22;7781;49.690;6.472;2023-04-01T10:16:51;10.40;99.90
15364;DHT22;7781;49.690;6.472;2023-04-01T10:19:55;10.40;99.90
15364;DHT22;7781;49.690;6.472;2023-04-01T10:22:54;10.40;99.90
15364;DHT22;7781;49.690;6.472;2023-04-01T10:28:54;10.30;99.90
15364;DHT22;7781;49.690;6.472;2023-04-01T10:32:00;10.40;99.90
15364;DHT22;7781;49.690;6.472;2023-04-01T10:34:49;10.40;99.90
15364;DHT22;7781;49.690;6.472;2023-04-01T10:37:49;10.40;99.90
15364;DHT22;7781;49.690;6.472;2023-04-01T10:40:43;10.60;99.90
15364;DHT22;7781;49.690;6.472;2023-04-01T10:44:06;10.80;99.90
15364;DHT22;7781;49.690;6.472;2023-04-01T10:56:34;10.90;99.90
15364;DHT22;7781;49.690;6.472;2023-04-01T10:59:51;10.90;99.90
15364;DHT22;7781;49.690;6.472;2023-04-01T11:22:38;11.40;99.90
15364;DHT22;7781;49.690;6.472;2023-04-01T11:25:44;11.50;99.90
15364;DHT22;7781;49.690;6.472;2023-04-01T11:29:04;11.50;99.90
15364;DHT22;7781;49.690;6.472;2023-04-01T11:31:51;11.40;99.90
15364;DHT22;7781;49.690;6.472;2023-04-01T11:34:41;11.20;99.90
15364;DHT22;7781;49.690;6.472;2023-04-01T11:37:29;11.30;99.90
15364;DHT22;7781;49.690;6.472;2023-04-01T11:40:29;11.30;99.90
15364;DHT22;7781;49.690;6.472;2023-04-01T11:43:37;11.40;99.90
15364;DHT22;7781;49.690;6.472;2023-04-01T11:46:25;11.50;99.90
15364;DHT22;7781;49.690;6.472;2023-04-01T11:49:03;11.40;99.90
15364;DHT22;7781;49.690;6.472;2023-04-01T11:51:52;11.30;99.90
15364;DHT22;7781;49.690;6.472;2023-04-01T11:54:56;11.30;99.90
15364;DHT22;7781;49.690;6.472;2023-04-01T11:57:52;11.30;99.90
15364;DHT22;7781;49.690;6.472;2023-04-01T12:03:39;11.40;99.90
15364;DHT22;7781;49.690;6.472;2023-04-01T12:06:14;11.50;99.90
15364;DHT22;7781;49.690;6.472;2023-04-01T12:08:49;11.50;99.90
15364;DHT22;7781;49.690;6.472;2023-04-01T12:11:28;11.30;99.90
15364;DHT22;7781;49.690;6.472;2023-04-01T12:14:05;11.20;99.90
15364;DHT22;7781;49.690;6.472;2023-04-01T12:16:44;11.10;99.90
15364;DHT22;7781;49.690;6.472;2023-04-01T12:19:23;11.00;99.90
15364;DHT22;7781;49.690;6.472;2023-04-01T12:22:08;11.10;99.90
15364;DHT22;7781;49.690;6.472;2023-04-01T12:24:51;11.10;99.90
15364;DHT22;7781;49.690;6.472;2023-04-01T12:27:31;11.10;99.90
15364;DHT22;7781;49.690;6.472;2023-04-01T12:30:25;11.10;99.90
15364;DHT22;7781;49.690;6.472;2023-04-01T12:33:10;11.20;99.90
15364;DHT22;7781;49.690;6.472;2023-04-01T12:35:53;11.40;99.90
15364;DHT22;7781;49.690;6.472;2023-04-01T12:38:31;11.60;99.90
15364;DHT22;7781;49.690;6.472;2023-04-01T12:41:09;11.80;99.90
15364;DHT22;7781;49.690;6.472;2023-04-01T12:43:56;12.00;99.90
15364;DHT22;7781;49.690;6.472;2023-04-01T12:46:46;12.10;99.90
15364;DHT22;7781;49.690;6.472;2023-04-01T12:49:37;12.10;99.90
15364;DHT22;7781;49.690;6.472;2023-04-01T12:52:10;12.10;99.90
15364;DHT22;7781;49.690;6.472;2023-04-01T12:55:03;12.10;99.90
15364;DHT22;7781;49.690;6.472;2023-04-01T12:58:06;12.20;99.90
15364;DHT22;7781;49.690;6.472;2023-04-01T13:01:05;12.30;99.90
15364;DHT22;7781;49.690;6.472;2023-04-01T13:03:59;12.40;99.90
15364;DHT22;7781;49.690;6.472;2023-04-01T13:06:43;12.10;99.90
15364;DHT22;7781;49.690;6.472;2023-04-01T13:09:27;12.00;99.90
15364;DHT22;7781;49.690;6.472;2023-04-01T13:12:17;12.00;99.90
15364;DHT22;7781;49.690;6.472;2023-04-01T13:15:03;11.90;99.90
15364;DHT22;7781;49.690;6.472;2023-04-01T13:17:38;11.80;99.90
15364;DHT22;7781;49.690;6.472;2023-04-01T13:20:19;11.70;99.90
15364;DHT22;7781;49.690;6.472;2023-04-01T13:23:01;11.60;99.90
15364;DHT22;7781;49.690;6.472;2023-04-01T13:25:39;11.60;99.90
15364;DHT22;7781;49.690;6.472;2023-04-01T13:28:15;11.50;99.90
15364;DHT22;7781;49.690;6.472;2023-04-01T13:30:56;11.40;99.90
15364;DHT22;7781;49.690;6.472;2023-04-01T13:33:34;11.30;99.90
15364;DHT22;7781;49.690;6.472;2023-04-01T13:36:17;11.30;99.90
15364;DHT22;7781;49.690;6.472;2023-04-01T13:39:08;11.30;99.90
15364;DHT22;7781;49.690;6.472;2023-04-01T13:41:57;11.40;99.90
15364;DHT22;7781;49.690;6.472;2023-04-01T13:44:32;11.40;99.90
15364;DHT22;7781;49.690;6.472;2023-04-01T13:47:44;11.40;99.90
15364;DHT22;7781;49.690;6.472;2023-04-01T13:50:26;11.50;99.90
15364;DHT22;7781;49.690;6.472;2023-04-01T13:53:13;11.60;99.90
15364;DHT22;7781;49.690;6.472;2023-04-01T13:55:56;11.50;99.90
15364;DHT22;7781;49.690;6.472;2023-04-01T13:58:49;11.30;99.90
15364;DHT22;7781;49.690;6.472;2023-04-01T14:01:31;11.20;99.90
15364;DHT22;7781;49.690;6.472;2023-04-01T14:04:27;11.10;99.90
15364;DHT22;7781;49.690;6.472;2023-04-01T14:07:07;10.80;99.90
15364;DHT22;7781;49.690;6.472;2023-04-01T14:09:45;10.80;99.90
15364;DHT22;7781;49.690;6.472;2023-04-01T14:12:28;10.90;99.90
15364;DHT22;7781;49.690;6.472;2023-04-01T14:15:24;11.00;99.90
15364;DHT22;7781;49.690;6.472;2023-04-01T14:18:02;11.00;99.90
15364;DHT22;7781;49.690;6.472;2023-04-01T14:20:40;11.00;99.90
15364;DHT22;7781;49.690;6.472;2023-04-01T14:26:18;10.90;99.90
15364;DHT22;7781;49.690;6.472;2023-04-01T14:28:58;10.80;99.90
15364;DHT22;7781;49.690;6.472;2023-04-01T14:31:51;10.80;99.90
15364;DHT22;7781;49.690;6.472;2023-04-01T14:34:39;10.80;99.90
15364;DHT22;7781;49.690;6.472;2023-04-01T14:37:15;10.80;99.90
15364;DHT22;7781;49.690;6.472;2023-04-01T14:40:00;10.70;99.90
15364;DHT22;7781;49.690;6.472;2023-04-01T14:45:58;10.70;99.90
15364;DHT22;7781;49.690;6.472;2023-04-01T14:48:32;10.60;99.90
15364;DHT22;7781;49.690;6.472;2023-04-01T14:51:10;10.70;99.90
15364;DHT22;7781;49.690;6.472;2023-04-01T14:53:59;10.70;99.90
15364;DHT22;7781;49.690;6.472;2023-04-01T14:57:04;10.70;99.90
15364;DHT22;7781;49.690;6.472;2023-04-01T15:00:00;10.80;99.90
15364;DHT22;7781;49.690;6.472;2023-04-01T15:02:41;10.80;99.90
15364;DHT22;7781;49.690;6.472;2023-04-01T15:05:27;10.80;99.90
15364;DHT22;7781;49.690;6.472;2023-04-01T15:08:11;10.80;99.90
15364;DHT22;7781;49.690;6.472;2023-04-01T15:11:03;10.80;99.90
15364;DHT22;7781;49.690;6.472;2023-04-01T15:13:51;10.80;99.90
15364;DHT22;7781;49.690;6.472;2023-04-01T15:16:27;10.80;99.90
15364;DHT22;7781;49.690;6.472;2023-04-01T15:19:14;10.80;99.90
15364;DHT22;7781;49.690;6.472;2023-04-01T15:24:47;10.90;99.90
15364;DHT22;7781;49.690;6.472;2023-04-01T15:27:31;11.00;99.90
15364;DHT22;7781;49.690;6.472;2023-04-01T15:30:23;11.00;99.90
15364;DHT22;7781;49.690;6.472;2023-04-01T15:33:06;11.00;99.90
15364;DHT22;7781;49.690;6.472;2023-04-01T15:35:48;10.90;99.90
15364;DHT22;7781;49.690;6.472;2023-04-01T15:38:28;10.80;99.90
15364;DHT22;7781;49.690;6.472;2023-04-01T15:41:07;10.70;99.90
15364;DHT22;7781;49.690;6.472;2023-04-01T15:43:46;10.70;99.90
15364;DHT22;7781;49.690;6.472;2023-04-01T15:46:26;10.70;99.90
15364;DHT22;7781;49.690;6.472;2023-04-01T15:49:08;10.60;99.90
15364;DHT22;7781;49.690;6.472;2023-04-01T15:55:05;10.70;99.90
15364;DHT22;7781;49.690;6.472;2023-04-01T15:57:47;10.90;99.90
15364;DHT22;7781;49.690;6.472;2023-04-01T16:00:23;11.00;99.90
15364;DHT22;7781;49.690;6.472;2023-04-01T16:03:19;11.10;99.90
15364;DHT22;7781;49.690;6.472;2023-04-01T16:06:01;11.00;99.90
15364;DHT22;7781;49.690;6.472;2023-04-01T16:09:06;10.90;99.90
15364;DHT22;7781;49.690;6.472;2023-04-01T16:11:51;10.90;99.90
15364;DHT22;7781;49.690;6.472;2023-04-01T16:14:31;10.90;99.90
15364;DHT22;7781;49.690;6.472;2023-04-01T16:17:27;11.00;99.90
15364;DHT22;7781;49.690;6.472;2023-04-01T16:20:02;10.90;99.90
15364;DHT22;7781;49.690;6.472;2023-04-01T16:22:46;10.90;99.90
15364;DHT22;7781;49.690;6.472;2023-04-01T16:25:26;10.80;99.90
15364;DHT22;7781;49.690;6.472;2023-04-01T16:28:13;10.90;99.90
15364;DHT22;7781;49.690;6.472;2023-04-01T16:30:48;10.80;99.90
15364;DHT22;7781;49.690;6.472;2023-04-01T16:33:31;10.80;99.90
15364;DHT22;7781;49.690;6.472;2023-04-01T16:36:10;10.60;99.90
15364;DHT22;7781;49.690;6.472;2023-04-01T16:38:50;10.60;99.90
15364;DHT22;7781;49.690;6.472;2023-04-01T16:41:24;10.60;99.90
15364;DHT22;7781;49.690;6.472;2023-04-01T16:44:10;10.50;99.90
15364;DHT22;7781;49.690;6.472;2023-04-01T16:46:40;10.50;99.90
15364;DHT22;7781;49.690;6.472;2023-04-01T16:49:24;10.50;99.90
15364;DHT22;7781;49.690;6.472;2023-04-01T16:52:03;10.40;99.90
15364;DHT22;7781;49.690;6.472;2023-04-01T16:54:40;10.30;99.90
15364;DHT22;7781;49.690;6.472;2023-04-01T16:57:21;10.20;99.90
15364;DHT22;7781;49.690;6.472;2023-04-01T17:00:15;10.20;99.90
15364;DHT22;7781;49.690;6.472;2023-04-01T17:02:49;10.20;99.90
15364;DHT22;7781;49.690;6.472;2023-04-01T17:05:21;10.10;99.90
15364;DHT22;7781;49.690;6.472;2023-04-01T17:08:08;10.10;99.90
15364;DHT22;7781;49.690;6.472;2023-04-01T17:10:48;10.10;99.90
15364;DHT22;7781;49.690;6.472;2023-04-01T17:13:29;10.00;99.90
15364;DHT22;7781;49.690;6.472;2023-04-01T17:16:27;10.00;99.90
15364;DHT22;7781;49.690;6.472;2023-04-01T17:19:08;10.00;99.90
15364;DHT22;7781;49.690;6.472;2023-04-01T17:21:52;9.90;99.90
15364;DHT22;7781;49.690;6.472;2023-04-01T17:24:32;9.80;99.90
15364;DHT22;7781;49.690;6.472;2023-04-01T17:27:13;9.80;99.90
15364;DHT22;7781;49.690;6.472;2023-04-01T17:30:08;9.70;99.90
15364;DHT22;7781;49.690;6.472;2023-04-01T17:32:54;9.70;99.90
15364;DHT22;7781;49.690;6.472;2023-04-01T17:35:28;9.70;99.90
15364;DHT22;7781;49.690;6.472;2023-04-01T17:38:10;9.60;99.90
15364;DHT22;7781;49.690;6.472;2023-04-01T17:40:50;9.50;99.90
15364;DHT22;7781;49.690;6.472;2023-04-01T17:43:30;9.50;99.90
15364;DHT22;7781;49.690;6.472;2023-04-01T17:46:08;9.40;99.90
15364;DHT22;7781;49.690;6.472;2023-04-01T17:48:45;9.40;99.90
15364;DHT22;7781;49.690;6.472;2023-04-01T17:51:25;9.50;99.90
15364;DHT22;7781;49.690;6.472;2023-04-01T17:54:05;9.40;99.90
15364;DHT22;7781;49.690;6.472;2023-04-01T17:56:45;9.50;99.90
15364;DHT22;7781;49.690;6.472;2023-04-01T17:59:22;9.50;99.90
15364;DHT22;7781;49.690;6.472;2023-04-01T18:01:59;9.50;99.90
15364;DHT22;7781;49.690;6.472;2023-04-01T18:04:50;9.50;99.90
15364;DHT22;7781;49.690;6.472;2023-04-01T18:07:32;9.50;99.90
15364;DHT22;7781;49.690;6.472;2023-04-01T18:10:17;9.50;99.90
15364;DHT22;7781;49.690;6.472;2023-04-01T18:13:16;9.50;99.90
15364;DHT22;7781;49.690;6.472;2023-04-01T18:16:00;9.50;99.90
15364;DHT22;7781;49.690;6.472;2023-04-01T18:18:40;9.50;99.90
15364;DHT22;7781;49.690;6.472;2023-04-01T18:21:19;9.50;99.90
15364;DHT22;7781;49.690;6.472;2023-04-01T18:23:55;9.50;99.90
15364;DHT22;7781;49.690;6.472;2023-04-01T18:26:32;9.50;99.90
15364;DHT22;7781;49.690;6.472;2023-04-01T18:29:10;9.50;99.90
15364;DHT22;7781;49.690;6.472;2023-04-01T18:31:44;9.50;99.90
15364;DHT22;7781;49.690;6.472;2023-04-01T18:34:20;9.50;99.90
15364;DHT22;7781;49.690;6.472;2023-04-01T18:37:10;9.50;99.90
15364;DHT22;7781;49.690;6.472;2023-04-01T18:39:46;9.50;99.90
15364;DHT22;7781;49.690;6.472;2023-04-01T18:42:23;9.50;99.90
15364;DHT22;7781;49.690;6.472;2023-04-01T18:45:01;9.50;99.90
15364;DHT22;7781;49.690;6.472;2023-04-01T18:47:43;9.60;99.90
15364;DHT22;7781;49.690;6.472;2023-04-01T18:50:21;9.50;99.90
15364;DHT22;7781;49.690;6.472;2023-04-01T18:52:56;9.50;99.90